createdAt,value
2024-05-09T00:03:26.664Z,5.73
2024-05-09T00:08:29.404Z,6.03
2024-05-09T00:13:32.125Z,5.10
2024-05-09T00:18:34.774Z,4.90
2024-05-09T00:23:37.513Z,4.87
2024-05-09T00:28:40.488Z,5.73
2024-05-09T00:33:43.483Z,5.03
2024-05-09T00:38:47.664Z,5.80
2024-05-09T00:43:50.402Z,6.03
2024-05-09T00:48:54.248Z,7.30
2024-05-09T00:53:57.444Z,5.23
2024-05-09T00:59:00.779Z,5.90
2024-05-09T01:04:03.610Z,6.30
2024-05-09T01:09:06.651Z,5.67
2024-05-09T01:14:09.294Z,5.30
2024-05-09T01:19:20.596Z,5.10
2024-05-09T01:24:23.190Z,5.23
2024-05-09T01:29:26.652Z,5.30
2024-05-09T01:34:29.406Z,5.10
2024-05-09T01:39:31.989Z,5.00
2024-05-09T01:44:34.684Z,5.23
2024-05-09T01:49:37.853Z,5.97
2024-05-09T01:54:40.584Z,5.47
2024-05-09T01:59:43.402Z,5.67
2024-05-09T02:04:47.856Z,5.50
2024-05-09T02:09:54.038Z,7.57
2024-05-09T02:14:56.757Z,6.03
2024-05-09T02:19:59.499Z,5.67
2024-05-09T02:25:02.192Z,5.40
2024-05-09T02:30:12.245Z,5.50
2024-05-09T02:35:21.204Z,4.73
2024-05-09T02:40:33.071Z,5.70
2024-05-09T02:45:40.449Z,5.50
2024-05-09T02:50:45.984Z,5.23
2024-05-09T02:55:48.650Z,5.87
2024-05-09T03:00:51.349Z,5.20
2024-05-09T03:05:54.016Z,5.10
2024-05-09T03:10:56.618Z,4.87
2024-05-09T03:16:00.345Z,6.03
2024-05-09T03:21:03.024Z,5.50
2024-05-09T03:26:11.371Z,5.20
2024-05-09T03:31:14.101Z,4.83
2024-05-09T03:36:16.771Z,6.00
2024-05-09T03:41:21.158Z,4.90
2024-05-09T03:46:23.867Z,4.73
2024-05-09T03:51:26.478Z,5.07
2024-05-09T03:56:29.276Z,5.43
2024-05-09T04:01:32.202Z,5.73
2024-05-09T04:06:34.972Z,5.40
2024-05-09T04:11:37.744Z,5.07
2024-05-09T04:16:40.556Z,5.90
2024-05-09T04:21:43.183Z,6.00
2024-05-09T04:26:45.762Z,4.83
2024-05-09T04:31:48.646Z,5.20
2024-05-09T04:36:51.622Z,4.90
2024-05-09T04:41:54.457Z,5.27
2024-05-09T04:46:57.205Z,5.07
2024-05-09T04:51:59.938Z,4.93
2024-05-09T04:57:02.595Z,5.57
2024-05-09T05:02:05.619Z,5.07
2024-05-09T05:07:08.305Z,5.10
2024-05-09T05:12:31.117Z,4.97
2024-05-09T05:17:34.292Z,5.40
2024-05-09T05:22:37.154Z,4.30
2024-05-09T05:27:40.849Z,4.53
2024-05-09T05:32:43.653Z,3.93
2024-05-09T05:37:46.408Z,4.00
2024-05-09T05:42:49.022Z,3.70
2024-05-09T05:47:54.313Z,3.40
2024-05-09T05:52:57.279Z,3.43
2024-05-09T05:58:04.116Z,3.27
2024-05-09T06:03:07.666Z,2.57
2024-05-09T06:08:10.522Z,2.73
2024-05-09T06:13:14.425Z,2.67
2024-05-09T06:18:17.552Z,2.90
2024-05-09T06:23:20.630Z,2.63
2024-05-09T06:28:23.263Z,2.40
2024-05-09T06:33:26.540Z,2.47
2024-05-09T06:38:29.477Z,3.23
2024-05-09T06:43:32.306Z,2.43
2024-05-09T06:48:35.155Z,2.10
2024-05-09T06:53:40.133Z,2.73
2024-05-09T06:58:43.381Z,3.17
2024-05-09T07:03:46.090Z,2.73
2024-05-09T07:08:50.215Z,2.87
2024-05-09T07:13:54.608Z,3.57
2024-05-09T07:18:57.452Z,2.50
2024-05-09T07:24:00.174Z,3.33
2024-05-09T07:29:02.787Z,2.40
2024-05-09T07:34:05.501Z,2.47
2024-05-09T07:39:08.931Z,2.37
2024-05-09T07:44:11.725Z,1.80
2024-05-09T07:50:55.824Z,1.80
2024-05-09T07:54:38.418Z,1.90
2024-05-09T07:59:41.269Z,1.67
2024-05-09T08:04:44.070Z,1.90
2024-05-09T08:09:46.816Z,1.60
2024-05-09T08:14:50.026Z,1.80
2024-05-09T08:19:56.324Z,1.90
2024-05-09T08:24:59.205Z,1.67
2024-05-09T08:30:01.927Z,1.43
2024-05-09T08:35:05.847Z,2.30
2024-05-09T08:40:16.582Z,1.80
2024-05-09T08:45:22.605Z,1.80
2024-05-09T08:50:32.322Z,2.60
2024-05-09T08:55:43.386Z,2.77
2024-05-09T09:00:47.372Z,2.43
2024-05-09T09:06:12.126Z,1.57
2024-05-09T09:11:14.787Z,2.27
2024-05-09T09:16:17.581Z,1.70
2024-05-09T09:21:20.253Z,1.97
2024-05-09T09:26:23.597Z,2.67
2024-05-09T09:31:26.586Z,2.80
2024-05-09T09:36:31.071Z,1.97
2024-05-09T09:41:36.523Z,1.80
2024-05-09T09:46:39.772Z,2.10
2024-05-09T09:51:44.339Z,2.20
2024-05-09T09:56:48.734Z,2.33
2024-05-09T10:01:52.225Z,2.40
2024-05-09T10:06:59.180Z,4.70
2024-05-09T10:12:13.761Z,1.70
2024-05-09T10:17:17.907Z,2.27
2024-05-09T10:22:31.244Z,2.00
2024-05-09T10:27:34.709Z,3.30
2024-05-09T10:32:40.135Z,2.07
2024-05-09T10:37:42.966Z,2.30
2024-05-09T10:42:45.817Z,1.90
2024-05-09T10:47:48.653Z,1.90
2024-05-09T10:52:53.331Z,1.80
2024-05-09T10:57:56.103Z,2.10
2024-05-09T11:02:58.916Z,2.47
2024-05-09T11:08:01.690Z,2.23
2024-05-09T11:13:04.643Z,2.93
2024-05-09T11:18:08.624Z,3.63
2024-05-09T11:23:12.994Z,3.60
2024-05-09T11:28:15.856Z,2.90
2024-05-09T11:33:19.902Z,2.90
2024-05-09T11:38:22.774Z,2.40
2024-05-09T11:43:25.529Z,2.70
2024-05-09T11:48:28.363Z,3.37
2024-05-09T11:53:31.098Z,3.07
2024-05-09T11:58:34.956Z,3.20
2024-05-09T12:03:38.241Z,3.60
2024-05-09T12:08:41.516Z,2.70
2024-05-09T12:13:44.220Z,3.88
2024-05-09T12:18:47.079Z,3.10
2024-05-09T12:23:49.818Z,3.50
2024-05-09T12:28:52.598Z,3.70
2024-05-09T12:33:55.273Z,3.50
2024-05-09T12:38:58.256Z,2.88
2024-05-09T12:44:00.946Z,3.70
2024-05-09T12:49:03.935Z,2.83
2024-05-09T12:54:06.861Z,2.72
2024-05-09T12:59:09.416Z,3.17
2024-05-09T13:04:12.101Z,2.78
2024-05-09T13:09:14.869Z,3.45
2024-05-09T13:14:17.463Z,3.80
2024-05-09T13:19:20.128Z,3.13
2024-05-09T13:24:22.729Z,3.08
2024-05-09T13:29:28.711Z,3.17
2024-05-09T13:34:31.298Z,2.50
2024-05-09T13:39:35.449Z,3.00
2024-05-09T13:44:38.149Z,9.60
2024-05-09T13:49:41.009Z,6.53
2024-05-09T13:54:43.713Z,2.85
2024-05-09T13:59:46.519Z,2.72
2024-05-09T14:04:49.316Z,2.42
2024-05-09T14:09:52.476Z,3.60
2024-05-09T14:14:55.071Z,2.83
2024-05-09T14:19:57.740Z,2.60
2024-05-09T14:25:00.365Z,2.28
2024-05-09T14:30:05.619Z,2.95
2024-05-09T14:35:10.152Z,2.70
2024-05-09T14:40:30.406Z,3.42
2024-05-09T14:45:38.277Z,2.70
2024-05-09T14:50:41.926Z,3.38
2024-05-09T14:55:44.744Z,2.65
2024-05-09T15:00:50.358Z,2.90
2024-05-09T15:05:54.417Z,2.85
2024-05-09T15:10:57.735Z,2.88
2024-05-09T15:16:00.798Z,3.15
2024-05-09T15:21:04.432Z,2.65
2024-05-09T15:26:07.307Z,2.95
2024-05-09T15:31:10.025Z,2.70
2024-05-09T15:36:13.266Z,3.30
2024-05-09T15:41:16.344Z,3.20
2024-05-09T15:46:19.136Z,3.20
2024-05-09T15:51:22.018Z,3.28
2024-05-09T15:56:24.927Z,2.53
2024-05-09T16:01:27.667Z,3.22
2024-05-09T16:06:30.657Z,2.83
2024-05-09T16:11:34.586Z,3.05
2024-05-09T16:16:37.315Z,3.17
2024-05-09T16:21:39.909Z,3.10
2024-05-09T16:26:43.033Z,2.60
2024-05-09T16:31:45.635Z,4.07
2024-05-09T16:36:50.387Z,3.28
2024-05-09T16:41:53.188Z,3.30
2024-05-09T16:46:56.722Z,2.80
2024-05-09T16:51:59.800Z,2.97
2024-05-09T16:57:05.302Z,2.45
2024-05-09T17:02:08.211Z,3.00
2024-05-09T17:07:11.158Z,2.60
2024-05-09T17:12:13.914Z,3.87
2024-05-09T17:17:16.729Z,3.13
2024-05-09T17:22:20.227Z,3.00
2024-05-09T17:27:23.165Z,2.93
2024-05-09T17:32:25.900Z,2.57
2024-05-09T17:37:28.567Z,4.30
2024-05-09T17:42:34.063Z,3.40
2024-05-09T17:47:36.862Z,4.20
2024-05-09T17:52:39.495Z,3.77
2024-05-09T17:57:42.198Z,4.17
2024-05-09T18:02:45.079Z,3.17
2024-05-09T18:07:47.871Z,3.00
2024-05-09T18:12:50.618Z,3.60
2024-05-09T18:17:53.435Z,8.63
2024-05-09T18:22:56.195Z,5.67
2024-05-09T18:27:59.035Z,6.30
2024-05-09T18:33:01.976Z,23.17
2024-05-09T18:38:05.745Z,23.57
2024-05-09T18:43:09.322Z,13.40
2024-05-09T18:48:12.553Z,7.73
2024-05-09T18:53:16.213Z,8.90
2024-05-09T18:58:18.936Z,8.67
2024-05-09T19:03:21.905Z,10.10
2024-05-09T19:08:24.783Z,13.30
2024-05-09T19:13:27.561Z,8.17
2024-05-09T19:18:31.356Z,7.60
2024-05-09T19:23:38.246Z,8.40
2024-05-09T19:28:43.770Z,11.77
2024-05-09T19:33:46.626Z,12.93
2024-05-09T19:38:51.615Z,11.40
2024-05-09T19:43:54.439Z,10.20
2024-05-09T19:48:57.538Z,11.17
2024-05-09T19:54:00.680Z,15.07
2024-05-09T19:59:04.354Z,15.60
2024-05-09T20:04:07.392Z,19.47
2024-05-09T20:09:10.101Z,18.00
2024-05-09T20:14:12.794Z,17.90
2024-05-09T20:19:15.606Z,19.07
2024-05-09T20:24:18.368Z,32.60
2024-05-09T20:29:21.508Z,54.47
2024-05-09T20:34:24.236Z,76.50
2024-05-09T20:39:27.018Z,65.13
2024-05-09T20:44:29.664Z,66.03
2024-05-09T20:49:32.409Z,40.13
2024-05-09T20:54:35.387Z,32.10
2024-05-09T20:59:39.338Z,33.17
2024-05-09T21:04:42.144Z,21.53
2024-05-09T21:09:45.083Z,20.33
2024-05-09T21:14:47.839Z,18.43
2024-05-09T21:19:50.941Z,16.50
2024-05-09T21:24:53.613Z,16.37
2024-05-09T21:29:56.248Z,14.63
2024-05-09T21:34:58.967Z,13.13
2024-05-09T21:40:06.947Z,11.63
2024-05-09T21:45:11.829Z,11.23
2024-05-09T21:50:22.282Z,8.33
2024-05-09T21:55:30.271Z,8.90
2024-05-09T22:00:37.663Z,11.27
2024-05-09T22:05:43.880Z,9.73
2024-05-09T22:10:46.837Z,12.60
2024-05-09T22:15:49.621Z,10.60
2024-05-09T22:20:52.341Z,9.80
2024-05-09T22:25:55.030Z,8.80
2024-05-09T22:30:57.762Z,8.37
2024-05-09T22:36:00.506Z,8.30
2024-05-09T22:41:07.859Z,9.47
2024-05-09T22:46:10.567Z,9.47
2024-05-09T22:51:13.350Z,9.17
2024-05-09T22:56:27.426Z,10.80
2024-05-09T23:01:30.339Z,12.33
2024-05-09T23:06:33.026Z,10.10
2024-05-09T23:11:35.733Z,8.97
2024-05-09T23:16:38.436Z,8.20
2024-05-09T23:21:41.197Z,8.93
2024-05-09T23:26:44.004Z,11.33
2024-05-09T23:31:46.743Z,11.40
2024-05-09T23:36:49.393Z,12.10
2024-05-09T23:41:52.126Z,12.77
2024-05-09T23:46:55.155Z,13.13
2024-05-09T23:52:00.661Z,14.17
2024-05-09T23:57:03.467Z,13.77
